Time;durP1;ratioP1;P1;durP2;ratioP2;P2;SDS_P1;SDS_P2;PMS_P1;PMS_P2;Temp;Humidity;BMP_temperature;BMP_pressure;BME280_temperature;BME280_humidity;BME280_pressure;Samples;Min_cycle;Max_cycle;Signal;HPM_P1;HPM_P2
2021/07/01 00:01:18;;;;;;;;;;;16.20;92.30;;;;;;4329400;33;43376;-75
2021/07/01 00:03:48;;;;;;;;;;;16.20;92.30;;;;;;4341385;33;43207;-76
2021/07/01 00:06:18;;;;;;;;;;;16.10;92.30;;;;;;4329319;33;44890;-76
2021/07/01 00:08:49;;;;;;;;;;;16.10;92.30;;;;;;4330634;33;43663;-76
2021/07/01 00:11:16;;;;;;;;;;;16.10;92.30;;;;;;4330684;33;44814;-76
2021/07/01 00:13:44;;;;;;;;;;;16.10;92.30;;;;;;4329483;33;43639;-75
2021/07/01 00:16:14;;;;;;;;;;;16.10;92.30;;;;;;4331073;33;21800;-76
2021/07/01 00:18:44;;;;;;;;;;;16.10;92.30;;;;;;4330988;33;37696;-75
2021/07/01 00:21:13;;;;;;;;;;;16.10;92.30;;;;;;4329663;33;44057;-76
2021/07/01 00:23:43;;;;;;;;;;;16.10;92.40;;;;;;4341198;33;42495;-75
2021/07/01 00:26:12;;;;;;;;;;;16.00;92.40;;;;;;4331253;33;27462;-75
2021/07/01 00:28:45;;;;;;;;;;;16.00;92.40;;;;;;4317893;33;43573;-75
2021/07/01 00:31:12;;;;;;;;;;;16.00;92.40;;;;;;4330561;33;40856;-75
2021/07/01 00:33:43;;;;;;;;;;;16.00;92.40;;;;;;4330559;33;43317;-75
2021/07/01 00:36:10;;;;;;;;;;;16.00;92.40;;;;;;4329678;33;20061;-75
2021/07/01 00:38:37;;;;;;;;;;;16.00;92.40;;;;;;4342565;33;20014;-75
2021/07/01 00:41:07;;;;;;;;;;;16.00;92.40;;;;;;4331346;33;20044;-75
2021/07/01 00:43:39;;;;;;;;;;;16.00;92.40;;;;;;4330019;33;44301;-76
2021/07/01 00:46:08;;;;;;;;;;;16.00;92.40;;;;;;4329396;33;45254;-75
2021/07/01 00:48:35;;;;;;;;;;;16.00;92.40;;;;;;4330198;33;43468;-75
2021/07/01 00:51:05;;;;;;;;;;;16.00;92.50;;;;;;4329493;33;36310;-77
2021/07/01 01:02:45;;;;;;;;;;;15.90;92.50;;;;;;4338050;33;43755;-76
2021/07/01 01:05:19;;;;;;;;;;;15.90;92.50;;;;;;4346330;33;20013;-76
2021/07/01 01:07:52;;;;;;;;;;;15.90;92.60;;;;;;4332469;33;20016;-76
2021/07/01 01:10:19;;;;;;;;;;;15.90;92.50;;;;;;4333571;33;20017;-76
2021/07/01 01:12:49;;;;;;;;;;;15.90;92.50;;;;;;4335255;33;20005;-75
2021/07/01 01:15:37;;;;;;;;;;;15.90;92.60;;;;;;4335599;33;20342;-76
2021/07/01 01:18:07;;;;;;;;;;;15.90;92.50;;;;;;4348352;33;21408;-75
2021/07/01 01:20:34;;;;;;;;;;;15.90;92.50;;;;;;4347615;33;44737;-76
2021/07/01 01:23:06;;;;;;;;;;;15.90;92.50;;;;;;4347636;33;42622;-76
2021/07/01 01:25:34;;;;;;;;;;;15.90;92.50;;;;;;4334171;33;44305;-75
2021/07/01 01:28:07;;;;;;;;;;;15.90;92.50;;;;;;4334436;33;43528;-76
2021/07/01 01:30:36;;;;;;;;;;;15.90;92.50;;;;;;4347618;33;38242;-77
2021/07/01 01:33:04;;;;;;;;;;;15.90;92.50;;;;;;4347064;33;40010;-76
2021/07/01 01:35:31;;;;;;;;;;;15.90;92.50;;;;;;4347118;33;43361;-76
2021/07/01 01:37:58;;;;;;;;;;;15.90;92.50;;;;;;4347479;33;43785;-76
2021/07/01 01:40:26;;;;;;;;;;;15.90;92.50;;;;;;4321631;33;44759;-76
2021/07/01 01:42:53;;;;;;;;;;;15.80;92.50;;;;;;4334392;33;33423;-76
2021/07/01 01:45:23;;;;;;;;;;;15.80;92.50;;;;;;4346759;33;45005;-76
2021/07/01 01:47:51;;;;;;;;;;;15.80;92.50;;;;;;4347271;33;44689;-76
2021/07/01 01:50:22;;;;;;;;;;;15.80;92.50;;;;;;4347964;33;20021;-76
2021/07/01 01:52:53;;;;;;;;;;;15.80;92.50;;;;;;4347215;33;44288;-77
2021/07/01 01:55:23;;;;;;;;;;;15.80;92.50;;;;;;4333647;33;43627;-76
2021/07/01 01:57:51;;;;;;;;;;;15.80;92.60;;;;;;4347074;33;44790;-76
2021/07/01 02:00:21;;;;;;;;;;;15.80;92.60;;;;;;4346734;33;43446;-76
2021/07/01 02:02:52;;;;;;;;;;;15.80;92.60;;;;;;4331380;33;30954;-77
2021/07/01 02:05:19;;;;;;;;;;;15.80;92.50;;;;;;4332986;33;22931;-76
2021/07/01 02:07:46;;;;;;;;;;;15.80;92.60;;;;;;4332987;33;20684;-76
2021/07/01 02:10:21;;;;;;;;;;;15.80;92.60;;;;;;4331180;33;24630;-77
2021/07/01 02:12:48;;;;;;;;;;;15.80;92.60;;;;;;4332025;33;22258;-76
2021/07/01 02:15:17;;;;;;;;;;;15.80;92.50;;;;;;4332111;33;30096;-76
2021/07/01 02:17:44;;;;;;;;;;;15.80;92.50;;;;;;4333050;33;20021;-76
2021/07/01 02:20:18;;;;;;;;;;;15.80;92.50;;;;;;4319369;33;24114;-75
2021/07/01 02:22:45;;;;;;;;;;;15.80;92.60;;;;;;4332452;33;20072;-76
2021/07/01 02:25:13;;;;;;;;;;;15.80;92.50;;;;;;4331139;33;20449;-76
2021/07/01 02:27:40;;;;;;;;;;;15.80;92.50;;;;;;4331407;33;20021;-76
2021/07/01 02:30:12;;;;;;;;;;;15.80;92.50;;;;;;4344338;33;20009;-76
2021/07/01 02:32:45;;;;;;;;;;;15.80;92.50;;;;;;4332570;33;20021;-76
2021/07/01 02:35:32;;;;;;;;;;;15.70;92.50;;;;;;4342413;33;20051;-77
2021/07/01 02:38:00;;;;;;;;;;;15.80;92.50;;;;;;4333010;33;20021;-76
2021/07/01 02:40:28;;;;;;;;;;;15.70;92.50;;;;;;4331840;33;20437;-77
2021/07/01 02:42:55;;;;;;;;;;;15.70;92.50;;;;;;4332807;33;20379;-76
2021/07/01 02:45:22;;;;;;;;;;;15.70;92.50;;;;;;4332461;33;20017;-76
2021/07/01 02:47:52;;;;;;;;;;;15.70;92.50;;;;;;4332092;33;32637;-76
2021/07/01 02:50:22;;;;;;;;;;;15.70;92.60;;;;;;4332394;33;20044;-76
2021/07/01 02:52:50;;;;;;;;;;;15.70;92.60;;;;;;4332058;33;20052;-77
2021/07/01 02:55:17;;;;;;;;;;;15.70;92.50;;;;;;4331918;33;19993;-77
2021/07/01 02:57:44;;;;;;;;;;;15.70;92.60;;;;;;4331544;33;20382;-76
2021/07/01 03:00:15;;;;;;;;;;;15.70;92.60;;;;;;4331136;33;20057;-76
2021/07/01 03:02:43;;;;;;;;;;;15.70;92.60;;;;;;4331312;33;20023;-77
2021/07/01 03:05:13;;;;;;;;;;;15.70;92.60;;;;;;4330815;33;20039;-75
2021/07/01 03:07:40;;;;;;;;;;;15.70;92.60;;;;;;4331160;33;43617;-76
2021/07/01 03:10:07;;;;;;;;;;;15.60;92.60;;;;;;4343723;32;20088;-76
2021/07/01 03:12:35;;;;;;;;;;;15.70;92.60;;;;;;4332475;33;20006;-76
2021/07/01 03:15:02;;;;;;;;;;;15.60;92.60;;;;;;4331097;33;20017;-76
2021/07/01 03:17:29;;;;;;;;;;;15.60;92.60;;;;;;4331073;33;43852;-76
2021/07/01 03:19:57;;;;;;;;;;;15.70;92.60;;;;;;4331310;33;20470;-76
2021/07/01 03:22:24;;;;;;;;;;;15.60;92.60;;;;;;4329909;33;43534;-76
2021/07/01 03:24:51;;;;;;;;;;;15.60;92.60;;;;;;4329762;33;44354;-76
2021/07/01 03:27:18;;;;;;;;;;;15.60;92.60;;;;;;4331265;33;43181;-76
2021/07/01 03:29:46;;;;;;;;;;;15.60;92.60;;;;;;4342260;33;43486;-77
2021/07/01 03:32:13;;;;;;;;;;;15.60;92.60;;;;;;4330986;33;44305;-76
2021/07/01 03:34:40;;;;;;;;;;;15.60;92.60;;;;;;4331784;33;20013;-76
2021/07/01 03:37:07;;;;;;;;;;;15.60;92.60;;;;;;4329694;33;43885;-76
2021/07/01 03:39:34;;;;;;;;;;;15.60;92.60;;;;;;4330892;33;43604;-76
2021/07/01 03:42:01;;;;;;;;;;;15.60;92.50;;;;;;4330529;33;42618;-76
2021/07/01 03:44:28;;;;;;;;;;;15.60;92.50;;;;;;4330882;33;44848;-76
2021/07/01 03:46:55;;;;;;;;;;;15.60;92.50;;;;;;4329884;33;44627;-76
2021/07/01 03:49:22;;;;;;;;;;;15.60;92.50;;;;;;4342205;33;43978;-77
2021/07/01 03:51:52;;;;;;;;;;;15.60;92.50;;;;;;4330539;33;45755;-76
2021/07/01 03:54:19;;;;;;;;;;;15.60;92.50;;;;;;4330743;33;43318;-76
2021/07/01 03:56:46;;;;;;;;;;;15.60;92.50;;;;;;4329803;33;44110;-77
2021/07/01 03:59:14;;;;;;;;;;;15.60;92.60;;;;;;4330313;33;43515;-75
2021/07/01 04:01:41;;;;;;;;;;;15.50;92.60;;;;;;4332128;33;44045;-76
2021/07/01 04:04:09;;;;;;;;;;;15.60;92.60;;;;;;4345833;33;44385;-76
2021/07/01 04:06:36;;;;;;;;;;;15.50;92.60;;;;;;4344946;33;44706;-76
2021/07/01 04:09:04;;;;;;;;;;;15.50;92.60;;;;;;4332658;33;22112;-76
2021/07/01 04:11:32;;;;;;;;;;;15.50;92.60;;;;;;4346221;33;20469;-77
2021/07/01 04:13:59;;;;;;;;;;;15.50;92.60;;;;;;4344725;33;20051;-76
2021/07/01 04:16:26;;;;;;;;;;;15.50;92.60;;;;;;4346618;33;20010;-76
2021/07/01 04:18:53;;;;;;;;;;;15.50;92.60;;;;;;4332911;33;20012;-77
2021/07/01 04:21:27;;;;;;;;;;;15.50;92.60;;;;;;4346176;33;20005;-77
2021/07/01 04:23:55;;;;;;;;;;;15.50;92.60;;;;;;4345449;33;44164;-76
2021/07/01 04:26:22;;;;;;;;;;;15.50;92.60;;;;;;4332003;33;37640;-75
2021/07/01 04:28:52;;;;;;;;;;;15.50;92.60;;;;;;4346140;33;20441;-77
2021/07/01 04:31:20;;;;;;;;;;;15.50;92.60;;;;;;4332126;33;24751;-76
2021/07/01 04:33:47;;;;;;;;;;;15.50;92.60;;;;;;4331754;33;43313;-75
2021/07/01 04:36:14;;;;;;;;;;;15.50;92.60;;;;;;4331765;33;43535;-75
2021/07/01 04:38:42;;;;;;;;;;;15.50;92.60;;;;;;4346272;33;20078;-76
2021/07/01 04:41:09;;;;;;;;;;;15.50;92.50;;;;;;4331960;33;43061;-76
2021/07/01 04:43:39;;;;;;;;;;;15.50;92.60;;;;;;4331556;33;43062;-76
2021/07/01 04:46:06;;;;;;;;;;;15.50;92.60;;;;;;4334860;33;44428;-76
2021/07/01 04:48:34;;;;;;;;;;;15.50;92.60;;;;;;4347884;33;43356;-76
2021/07/01 04:51:01;;;;;;;;;;;15.50;92.60;;;;;;4348093;33;41128;-76
2021/07/01 04:53:28;;;;;;;;;;;15.50;92.60;;;;;;4349302;33;20424;-77
2021/07/01 04:55:55;;;;;;;;;;;15.50;92.60;;;;;;4334611;33;43919;-76
2021/07/01 04:58:22;;;;;;;;;;;15.50;92.60;;;;;;4345800;33;43630;-75
2021/07/01 05:00:50;;;;;;;;;;;15.40;92.60;;;;;;4334159;33;43709;-76
2021/07/01 05:03:19;;;;;;;;;;;15.40;92.60;;;;;;4334015;33;43195;-75
2021/07/01 05:05:46;;;;;;;;;;;15.40;92.60;;;;;;4347533;33;43341;-77
2021/07/01 05:08:15;;;;;;;;;;;15.40;92.60;;;;;;4347282;33;43377;-76
2021/07/01 05:10:49;;;;;;;;;;;15.40;92.60;;;;;;4323979;33;20001;-76
2021/07/01 05:13:18;;;;;;;;;;;15.40;92.60;;;;;;4347725;33;44755;-76
2021/07/01 05:15:45;;;;;;;;;;;15.40;92.60;;;;;;4347567;33;44611;-76
2021/07/01 05:18:15;;;;;;;;;;;15.40;92.60;;;;;;4348083;32;27261;-76
2021/07/01 05:20:43;;;;;;;;;;;15.40;92.60;;;;;;4322270;33;43974;-76
2021/07/01 05:23:10;;;;;;;;;;;15.40;92.60;;;;;;4333947;33;42976;-76
2021/07/01 05:25:37;;;;;;;;;;;15.40;92.60;;;;;;4347337;33;43659;-75
2021/07/01 05:28:09;;;;;;;;;;;15.40;92.60;;;;;;4333859;33;42509;-75
2021/07/01 05:30:40;;;;;;;;;;;15.40;92.60;;;;;;4334746;33;43651;-76
2021/07/01 05:33:16;;;;;;;;;;;15.40;92.50;;;;;;4335860;32;20433;-75
2021/07/01 05:35:43;;;;;;;;;;;15.40;92.50;;;;;;4347829;33;43324;-76
2021/07/01 05:38:13;;;;;;;;;;;15.40;92.50;;;;;;4333907;33;43985;-76
2021/07/01 05:40:40;;;;;;;;;;;15.40;92.50;;;;;;4333494;33;45668;-75
2021/07/01 05:43:08;;;;;;;;;;;15.40;92.50;;;;;;4321753;33;33961;-75
2021/07/01 05:45:35;;;;;;;;;;;15.40;92.50;;;;;;4333551;33;44741;-75
2021/07/01 05:48:02;;;;;;;;;;;15.40;92.50;;;;;;4345616;33;45241;-75
2021/07/01 05:50:31;;;;;;;;;;;15.40;92.50;;;;;;4348530;33;20009;-75
2021/07/01 05:53:06;;;;;;;;;;;15.40;92.50;;;;;;4346958;33;41890;-74
2021/07/01 05:55:33;;;;;;;;;;;15.40;92.80;;;;;;4346779;33;44549;-76
2021/07/01 05:58:01;;;;;;;;;;;15.40;92.50;;;;;;4346847;33;40241;-77
2021/07/01 06:00:29;;;;;;;;;;;15.40;92.50;;;;;;4345635;33;42686;-75
2021/07/01 06:02:57;;;;;;;;;;;15.40;92.40;;;;;;4333399;33;43636;-75
2021/07/01 06:05:24;;;;;;;;;;;15.40;92.40;;;;;;4333102;33;44764;-76
2021/07/01 06:07:52;;;;;;;;;;;15.40;92.40;;;;;;4333611;33;44621;-75
2021/07/01 06:10:20;;;;;;;;;;;15.40;92.50;;;;;;4346859;33;45338;-75
2021/07/01 06:12:47;;;;;;;;;;;15.40;92.50;;;;;;4321323;33;45306;-77
2021/07/01 06:15:14;;;;;;;;;;;15.30;92.50;;;;;;4347112;33;44269;-75
2021/07/01 06:17:43;;;;;;;;;;;15.40;92.50;;;;;;4346555;33;44230;-76
2021/07/01 06:20:13;;;;;;;;;;;15.30;92.50;;;;;;4334756;33;20001;-76
2021/07/01 06:22:41;;;;;;;;;;;15.30;92.50;;;;;;4346328;33;43615;-76
2021/07/01 06:25:08;;;;;;;;;;;15.30;92.50;;;;;;4346886;33;40935;-75
2021/07/01 06:30:15;;;;;;;;;;;15.30;92.50;;;;;;4347659;33;20068;-75
2021/07/01 06:32:46;;;;;;;;;;;15.30;92.50;;;;;;4346877;33;43292;-76
2021/07/01 06:35:17;;;;;;;;;;;15.30;92.50;;;;;;4346399;33;44438;-76
2021/07/01 06:37:44;;;;;;;;;;;15.30;92.50;;;;;;4332723;33;42092;-76
2021/07/01 06:40:12;;;;;;;;;;;15.30;92.60;;;;;;4333953;33;32706;-76
2021/07/01 06:42:42;;;;;;;;;;;15.30;92.50;;;;;;4332803;33;41052;-75
2021/07/01 06:45:12;;;;;;;;;;;15.30;92.50;;;;;;4345986;33;44653;-76
2021/07/01 06:47:47;;;;;;;;;;;15.30;92.50;;;;;;4332792;33;42857;-76
2021/07/01 06:50:15;;;;;;;;;;;15.30;92.60;;;;;;4333356;33;20019;-76
2021/07/01 06:52:44;;;;;;;;;;;15.30;92.60;;;;;;4346893;33;20088;-76
2021/07/01 06:55:15;;;;;;;;;;;15.30;92.60;;;;;;4333607;33;20023;-76
2021/07/01 06:57:42;;;;;;;;;;;15.30;92.60;;;;;;4347104;33;20009;-76
2021/07/01 07:00:11;;;;;;;;;;;15.30;92.60;;;;;;4347137;33;20001;-76
2021/07/01 07:02:40;;;;;;;;;;;15.30;92.60;;;;;;4345695;33;44062;-75
2021/07/01 07:05:08;;;;;;;;;;;15.30;92.60;;;;;;4347034;33;20009;-76
2021/07/01 07:07:35;;;;;;;;;;;15.30;92.60;;;;;;4333541;33;20051;-76
2021/07/01 07:10:04;;;;;;;;;;;15.30;92.50;;;;;;4347325;33;20068;-76
2021/07/01 07:12:42;;;;;;;;;;;15.30;92.50;;;;;;4346622;33;25010;-76
2021/07/01 07:15:11;;;;;;;;;;;15.30;92.50;;;;;;4346799;33;25381;-76
2021/07/01 07:17:39;;;;;;;;;;;15.30;92.50;;;;;;4346482;33;27829;-77
2021/07/01 07:20:15;;;;;;;;;;;15.30;92.60;;;;;;4334032;33;20403;-76
2021/07/01 07:22:45;;;;;;;;;;;15.30;92.50;;;;;;4333446;33;20118;-76
2021/07/01 07:25:12;;;;;;;;;;;15.30;92.50;;;;;;4332778;33;24176;-76
2021/07/01 07:28:03;;;;;;;;;;;15.30;92.60;;;;;;4333738;33;20020;-76
2021/07/01 07:30:30;;;;;;;;;;;15.30;92.60;;;;;;4346547;33;28538;-77
2021/07/01 07:33:01;;;;;;;;;;;15.40;92.60;;;;;;4333159;33;20017;-77
2021/07/01 07:35:31;;;;;;;;;;;15.40;92.60;;;;;;4333369;33;20017;-76
2021/07/01 07:37:59;;;;;;;;;;;15.30;92.50;;;;;;4333219;33;20020;-76
2021/07/01 07:40:27;;;;;;;;;;;15.30;92.60;;;;;;4332644;33;20403;-77
2021/07/01 07:42:55;;;;;;;;;;;15.30;92.60;;;;;;4332717;33;20049;-76
2021/07/01 07:45:22;;;;;;;;;;;15.30;92.60;;;;;;4333246;33;20034;-76
2021/07/01 07:47:49;;;;;;;;;;;15.30;92.90;;;;;;4346048;33;21077;-76
2021/07/01 07:50:19;;;;;;;;;;;15.30;92.60;;;;;;4345186;33;20021;-76
2021/07/01 07:52:51;;;;;;;;;;;15.30;92.60;;;;;;4346369;33;20051;-76
2021/07/01 07:55:22;;;;;;;;;;;15.30;92.60;;;;;;4333111;33;20009;-77
2021/07/01 07:57:51;;;;;;;;;;;15.30;92.60;;;;;;4346657;33;20005;-77
2021/07/01 08:00:19;;;;;;;;;;;15.30;92.80;;;;;;4345203;33;20008;-76
2021/07/01 08:02:47;;;;;;;;;;;15.30;92.90;;;;;;4332607;33;20005;-76
2021/07/01 08:05:18;;;;;;;;;;;15.30;92.60;;;;;;4333453;33;20406;-76
2021/07/01 08:07:46;;;;;;;;;;;15.30;92.60;;;;;;4346398;33;20004;-77
2021/07/01 08:10:15;;;;;;;;;;;15.30;92.60;;;;;;4332759;33;28568;-77
2021/07/01 08:12:44;;;;;;;;;;;15.30;92.60;;;;;;4332614;33;20025;-76
2021/07/01 08:15:12;;;;;;;;;;;15.30;92.60;;;;;;4333014;33;20353;-77
2021/07/01 08:17:41;;;;;;;;;;;15.30;92.60;;;;;;4332750;33;20023;-76
2021/07/01 08:20:12;;;;;;;;;;;15.30;92.60;;;;;;4335882;33;25193;-77
2021/07/01 08:22:45;;;;;;;;;;;15.30;92.60;;;;;;4337695;33;22303;-77
2021/07/01 08:25:13;;;;;;;;;;;15.30;92.60;;;;;;4350872;33;26608;-77
2021/07/01 08:27:41;;;;;;;;;;;15.30;92.60;;;;;;4350606;33;20021;-77
2021/07/01 08:30:09;;;;;;;;;;;15.30;92.60;;;;;;4350688;33;20014;-77
2021/07/01 08:32:40;;;;;;;;;;;15.30;92.60;;;;;;4350658;33;20017;-75
2021/07/01 08:35:11;;;;;;;;;;;15.30;92.60;;;;;;4324735;33;28691;-77
2021/07/01 08:37:43;;;;;;;;;;;15.30;92.60;;;;;;4351227;33;22593;-77
2021/07/01 08:40:11;;;;;;;;;;;15.20;92.60;;;;;;4350702;32;28706;-76
2021/07/01 08:42:41;;;;;;;;;;;15.30;92.60;;;;;;4349895;33;20004;-77
2021/07/01 08:45:17;;;;;;;;;;;15.30;92.60;;;;;;4351373;33;20038;-77
2021/07/01 08:47:44;;;;;;;;;;;15.20;92.60;;;;;;4349850;33;20080;-77
2021/07/01 08:50:17;;;;;;;;;;;15.20;92.60;;;;;;4351016;33;20024;-76
2021/07/01 08:53:03;;;;;;;;;;;15.20;92.60;;;;;;4350062;33;25330;-76
2021/07/01 08:55:30;;;;;;;;;;;15.20;92.60;;;;;;4324720;33;25999;-76
2021/07/01 08:57:59;;;;;;;;;;;15.20;92.50;;;;;;4337598;33;20060;-76
2021/07/01 09:00:27;;;;;;;;;;;15.20;92.60;;;;;;4350287;33;28878;-76
2021/07/01 09:03:03;;;;;;;;;;;15.20;92.60;;;;;;4336965;33;26427;-77
2021/07/01 09:05:31;;;;;;;;;;;15.20;92.60;;;;;;4351549;33;20025;-77
2021/07/01 09:07:59;;;;;;;;;;;15.20;92.60;;;;;;4350025;33;44317;-77
2021/07/01 09:10:31;;;;;;;;;;;15.20;92.60;;;;;;4349980;33;44316;-77
2021/07/01 09:12:59;;;;;;;;;;;15.20;92.60;;;;;;4350347;33;44153;-76
2021/07/01 09:15:27;;;;;;;;;;;15.20;92.60;;;;;;4336256;33;44937;-76
2021/07/01 09:17:58;;;;;;;;;;;15.20;92.60;;;;;;4349488;33;42030;-77
2021/07/01 09:20:28;;;;;;;;;;;15.20;92.60;;;;;;4349916;33;44668;-77
2021/07/01 09:22:56;;;;;;;;;;;15.20;92.90;;;;;;4336630;33;45460;-77
2021/07/01 09:25:23;;;;;;;;;;;15.20;92.60;;;;;;4335975;33;44920;-77
2021/07/01 09:27:52;;;;;;;;;;;15.20;92.50;;;;;;4349392;33;44685;-77
2021/07/01 09:30:28;;;;;;;;;;;15.20;92.50;;;;;;4348412;32;44166;-76
2021/07/01 09:32:59;;;;;;;;;;;15.20;92.50;;;;;;4334270;33;43505;-76
2021/07/01 09:35:28;;;;;;;;;;;15.20;92.50;;;;;;4347529;33;43627;-77
2021/07/01 09:38:02;;;;;;;;;;;15.30;92.50;;;;;;4333759;33;43634;-77
2021/07/01 09:40:30;;;;;;;;;;;15.20;92.50;;;;;;4334892;33;20005;-76
2021/07/01 09:43:01;;;;;;;;;;;15.30;92.50;;;;;;4334540;33;33664;-77
2021/07/01 09:45:28;;;;;;;;;;;15.30;92.50;;;;;;4347219;33;41923;-77
2021/07/01 09:48:00;;;;;;;;;;;15.30;92.70;;;;;;4334309;33;37015;-77
2021/07/01 09:50:30;;;;;;;;;;;15.30;92.50;;;;;;4335123;33;20009;-77
2021/07/01 09:53:01;;;;;;;;;;;15.30;92.50;;;;;;4347677;33;27965;-76
2021/07/01 09:55:29;;;;;;;;;;;15.30;92.50;;;;;;4347491;33;40732;-77
2021/07/01 09:58:02;;;;;;;;;;;15.30;92.50;;;;;;4333975;33;37882;-76
2021/07/01 10:00:31;;;;;;;;;;;15.30;92.50;;;;;;4347208;33;44582;-76
2021/07/01 10:03:03;;;;;;;;;;;15.30;92.50;;;;;;4333297;33;42034;-77
2021/07/01 10:05:30;;;;;;;;;;;15.30;92.50;;;;;;4346957;33;43983;-76
2021/07/01 10:07:57;;;;;;;;;;;15.30;92.50;;;;;;4333534;33;44593;-77
2021/07/01 10:10:25;;;;;;;;;;;15.30;92.50;;;;;;4345479;33;43308;-77
2021/07/01 10:12:56;;;;;;;;;;;15.30;92.50;;;;;;4346014;33;42262;-77
2021/07/01 10:15:33;;;;;;;;;;;15.30;92.50;;;;;;4333545;33;44238;-77
2021/07/01 10:18:00;;;;;;;;;;;15.30;92.60;;;;;;4346701;33;43638;-76
2021/07/01 10:20:38;;;;;;;;;;;15.20;92.60;;;;;;4346840;33;38908;-77
2021/07/01 10:23:18;;;;;;;;;;;15.20;92.60;;;;;;4347017;33;42538;-76
2021/07/01 10:25:47;;;;;;;;;;;15.20;92.60;;;;;;4333966;33;20093;-76
2021/07/01 10:28:15;;;;;;;;;;;15.20;92.60;;;;;;4347006;33;44633;-76
2021/07/01 10:30:58;;;;;;;;;;;15.20;92.60;;;;;;4333833;33;44931;-77
2021/07/01 10:33:26;;;;;;;;;;;15.20;92.60;;;;;;4347436;33;20792;-76
2021/07/01 10:35:56;;;;;;;;;;;15.20;92.60;;;;;;4333146;33;39915;-76
2021/07/01 10:38:24;;;;;;;;;;;15.20;92.60;;;;;;4332966;33;42987;-76
2021/07/01 10:40:53;;;;;;;;;;;15.20;92.60;;;;;;4346283;33;42062;-75
2021/07/01 10:43:21;;;;;;;;;;;15.20;92.60;;;;;;4321589;33;20387;-76
2021/07/01 10:45:55;;;;;;;;;;;15.20;92.60;;;;;;4346302;33;44088;-77
2021/07/01 10:48:23;;;;;;;;;;;15.20;92.60;;;;;;4333183;33;42786;-76
2021/07/01 10:51:04;;;;;;;;;;;15.20;92.60;;;;;;4333661;33;36953;-76
2021/07/01 10:53:33;;;;;;;;;;;15.20;92.60;;;;;;4332390;33;43798;-76
2021/07/01 10:56:06;;;;;;;;;;;15.20;92.60;;;;;;4334454;33;20052;-77
2021/07/01 10:58:33;;;;;;;;;;;15.20;92.60;;;;;;4332988;33;36782;-76
2021/07/01 11:01:20;;;;;;;;;;;15.20;92.60;;;;;;4323876;33;41554;-75
2021/07/01 11:04:02;;;;;;;;;;;15.20;92.70;;;;;;4331035;33;44453;-76
2021/07/01 11:06:29;;;;;;;;;;;15.20;92.60;;;;;;4318530;33;43394;-76
2021/07/01 11:08:57;;;;;;;;;;;15.20;92.60;;;;;;4331005;33;43403;-76
2021/07/01 11:11:34;;;;;;;;;;;15.30;92.60;;;;;;4331586;33;38750;-76
2021/07/01 11:14:03;;;;;;;;;;;15.30;92.60;;;;;;4331670;33;32741;-76
2021/07/01 11:16:33;;;;;;;;;;;15.30;92.60;;;;;;4317711;33;39343;-75
2021/07/01 11:19:01;;;;;;;;;;;15.30;92.60;;;;;;4317926;33;38014;-76
2021/07/01 11:21:28;;;;;;;;;;;15.30;92.50;;;;;;4329687;33;23542;-76
2021/07/01 11:24:27;;;;;;;;;;;15.30;92.50;;;;;;4331266;33;44501;-74
2021/07/01 11:26:56;;;;;;;;;;;15.40;92.50;;;;;;4301801;33;38763;-75
2021/07/01 11:29:33;;;;;;;;;;;15.40;92.50;;;;;;4331449;33;44241;-76
2021/07/01 11:32:00;;;;;;;;;;;15.40;92.50;;;;;;4330682;33;41063;-76
2021/07/01 11:34:41;;;;;;;;;;;15.40;92.40;;;;;;4331494;33;20414;-77
2021/07/01 11:37:08;;;;;;;;;;;15.50;92.40;;;;;;4329768;33;44806;-76
2021/07/01 11:39:35;;;;;;;;;;;15.40;92.40;;;;;;4317697;33;44466;-75
2021/07/01 11:42:04;;;;;;;;;;;15.40;92.30;;;;;;4330784;33;42629;-76
2021/07/01 11:44:32;;;;;;;;;;;15.40;92.30;;;;;;4317373;33;42440;-75
2021/07/01 11:47:00;;;;;;;;;;;15.50;92.30;;;;;;4330541;33;42143;-77
2021/07/01 11:49:32;;;;;;;;;;;15.50;92.30;;;;;;4317574;33;46196;-77
2021/07/01 11:52:05;;;;;;;;;;;15.50;92.30;;;;;;4318912;33;20406;-77
2021/07/01 11:54:33;;;;;;;;;;;15.50;92.30;;;;;;4330561;33;44479;-75
2021/07/01 11:57:00;;;;;;;;;;;15.50;92.30;;;;;;4317075;33;44629;-75
2021/07/01 11:59:28;;;;;;;;;;;15.50;92.20;;;;;;4330730;33;43702;-75
2021/07/01 12:01:57;;;;;;;;;;;15.50;92.20;;;;;;4330148;33;42610;-76
2021/07/01 12:04:35;;;;;;;;;;;15.50;92.20;;;;;;4305083;33;43378;-77
2021/07/01 12:07:21;;;;;;;;;;;15.40;92.20;;;;;;4330855;33;43348;-76
2021/07/01 12:09:49;;;;;;;;;;;15.40;92.10;;;;;;4330667;33;44612;-77
2021/07/01 12:12:17;;;;;;;;;;;15.40;92.10;;;;;;4330751;33;40650;-77
2021/07/01 12:14:46;;;;;;;;;;;15.40;92.10;;;;;;4317509;33;30712;-76
2021/07/01 12:17:33;;;;;;;;;;;15.50;92.10;;;;;;4330707;33;44473;-77
2021/07/01 12:20:03;;;;;;;;;;;15.50;92.10;;;;;;4331028;33;31363;-75
2021/07/01 12:22:49;;;;;;;;;;;15.50;92.10;;;;;;4317472;33;44442;-77
2021/07/01 12:25:25;;;;;;;;;;;15.50;92.00;;;;;;4331017;33;34975;-76
2021/07/01 12:28:04;;;;;;;;;;;15.50;92.00;;;;;;4317273;33;43668;-77
2021/07/01 12:30:46;;;;;;;;;;;15.50;92.00;;;;;;4330830;33;44500;-77
2021/07/01 12:33:33;;;;;;;;;;;15.50;92.00;;;;;;4331902;33;20013;-76
2021/07/01 12:36:03;;;;;;;;;;;15.50;92.00;;;;;;4330084;33;28983;-75
2021/07/01 12:38:30;;;;;;;;;;;15.50;92.00;;;;;;4317501;33;38530;-76
2021/07/01 12:41:00;;;;;;;;;;;15.60;92.00;;;;;;4317273;33;44050;-74
2021/07/01 12:43:47;;;;;;;;;;;15.60;92.00;;;;;;4330063;33;44791;-75
2021/07/01 12:46:33;;;;;;;;;;;15.60;92.00;;;;;;4317446;33;42495;-76
2021/07/01 12:49:01;;;;;;;;;;;15.60;91.90;;;;;;4329512;33;45242;-74
2021/07/01 12:51:43;;;;;;;;;;;15.60;91.90;;;;;;4330325;33;43603;-76
2021/07/01 12:54:16;;;;;;;;;;;15.60;91.90;;;;;;4330386;33;44745;-77
2021/07/01 12:56:43;;;;;;;;;;;15.60;91.90;;;;;;4329960;33;44137;-76
2021/07/01 12:59:10;;;;;;;;;;;15.60;91.80;;;;;;4331598;33;20013;-76
2021/07/01 13:01:37;;;;;;;;;;;15.60;91.80;;;;;;4317365;33;36635;-75
2021/07/01 13:04:07;;;;;;;;;;;15.60;91.80;;;;;;4330543;33;44551;-76
2021/07/01 13:06:34;;;;;;;;;;;15.60;91.80;;;;;;4332116;33;44250;-75
2021/07/01 13:09:01;;;;;;;;;;;15.70;91.80;;;;;;4333057;33;32999;-77
2021/07/01 13:11:39;;;;;;;;;;;15.70;91.80;;;;;;4333970;33;20010;-75
2021/07/01 13:14:06;;;;;;;;;;;15.70;91.80;;;;;;4333089;33;43561;-77
2021/07/01 13:16:36;;;;;;;;;;;15.70;91.70;;;;;;4331500;33;43640;-75
2021/07/01 13:19:22;;;;;;;;;;;15.70;91.70;;;;;;4320485;33;20053;-75
2021/07/01 13:21:52;;;;;;;;;;;15.70;91.70;;;;;;4319412;33;44953;-76
2021/07/01 13:24:20;;;;;;;;;;;15.70;91.70;;;;;;4333844;33;20024;-76
2021/07/01 13:26:47;;;;;;;;;;;15.70;91.70;;;;;;4332861;33;44689;-77
2021/07/01 13:29:33;;;;;;;;;;;15.80;91.70;;;;;;4332445;33;43630;-76
2021/07/01 13:32:04;;;;;;;;;;;15.80;91.70;;;;;;4332687;33;33766;-76
2021/07/01 13:34:31;;;;;;;;;;;15.80;91.60;;;;;;4332979;33;44672;-76
2021/07/01 13:37:17;;;;;;;;;;;15.80;91.60;;;;;;4332564;33;42538;-75
2021/07/01 13:39:44;;;;;;;;;;;15.80;91.60;;;;;;4332922;33;44497;-76
2021/07/01 13:42:25;;;;;;;;;;;15.80;91.60;;;;;;4319479;33;44976;-77
2021/07/01 13:45:13;;;;;;;;;;;15.80;91.60;;;;;;4332856;33;42966;-76
2021/07/01 13:47:44;;;;;;;;;;;15.80;91.60;;;;;;4333949;33;20009;-76
2021/07/01 13:50:21;;;;;;;;;;;15.90;91.60;;;;;;4333890;33;20006;-76
2021/07/01 13:52:48;;;;;;;;;;;15.80;91.50;;;;;;4320082;33;20017;-77
2021/07/01 13:55:30;;;;;;;;;;;15.80;91.50;;;;;;4307952;33;20010;-76
2021/07/01 13:57:57;;;;;;;;;;;15.80;91.50;;;;;;4332692;33;20940;-76
2021/07/01 14:00:36;;;;;;;;;;;15.80;91.50;;;;;;4333048;33;20009;-75
2021/07/01 14:03:05;;;;;;;;;;;15.80;91.50;;;;;;4319960;33;20019;-77
2021/07/01 14:05:43;;;;;;;;;;;15.80;91.50;;;;;;4332395;33;20056;-75
2021/07/01 14:08:30;;;;;;;;;;;15.90;91.50;;;;;;4332855;33;20006;-76
2021/07/01 14:11:05;;;;;;;;;;;15.90;91.50;;;;;;4333098;33;20073;-75
2021/07/01 14:13:35;;;;;;;;;;;15.90;91.40;;;;;;4333093;33;20044;-77
2021/07/01 14:16:03;;;;;;;;;;;15.90;91.40;;;;;;4320101;33;20001;-77
2021/07/01 14:18:34;;;;;;;;;;;15.90;91.40;;;;;;4333001;33;20009;-76
2021/07/01 14:21:02;;;;;;;;;;;15.90;91.40;;;;;;4307683;33;20002;-76
2021/07/01 14:23:30;;;;;;;;;;;15.90;91.30;;;;;;4320247;33;20414;-75
2021/07/01 14:25:57;;;;;;;;;;;15.90;91.30;;;;;;4333156;33;20091;-76
2021/07/01 14:28:27;;;;;;;;;;;15.90;91.30;;;;;;4332637;33;20010;-77
2021/07/01 14:30:55;;;;;;;;;;;15.90;91.30;;;;;;4319353;33;20405;-77
2021/07/01 14:33:26;;;;;;;;;;;15.90;91.30;;;;;;4332410;33;20002;-77
2021/07/01 14:35:59;;;;;;;;;;;16.00;91.30;;;;;;4333018;33;20016;-76
2021/07/01 14:38:27;;;;;;;;;;;16.00;91.20;;;;;;4319171;33;20013;-77
2021/07/01 14:40:55;;;;;;;;;;;16.00;91.20;;;;;;4318728;33;20009;-77
2021/07/01 14:43:29;;;;;;;;;;;16.00;91.20;;;;;;4319729;33;20048;-77
2021/07/01 14:46:15;;;;;;;;;;;16.00;91.20;;;;;;4332720;33;20022;-76